Santa Cruz de la Sierra, Bolivia
Current Conditions -  °F | °C
As of 6:29 AM on Monday 22 Dec 2014 (Local Time) from SLET Reporting Station
Light Rain Light Rain  
Wind Chill: 19°   Ceiling: 600
Heat Index: 19°   Visibility: 2.1mi
Dew Point: 19°   Wind: 14mph
Humidity: 100%   Direction: 160°SSE
Pressure: 29.88"   Gusts: NA
Location:  17.79°S, 63.2°W
Report Text: SLET 221029Z 16012KT 3500 -RA BKN006 BKN012 OVC070 19/19 Q1012
Loading
Personal Weather Stations






























Interactive Weather Map New forecast layout! Learn more

10-Day Weather Forecast

Advertisements
Track Severe Weather on mobile